Time;durP1;ratioP1;P1;durP2;ratioP2;P2;SDS_P1;SDS_P2;PMS_P1;PMS_P2;Temp;Humidity;BMP_temperature;BMP_pressure;BME280_temperature;BME280_humidity;BME280_pressure;Samples;Min_cycle;Max_cycle;Signal;HPM_P1;HPM_P2
2022/04/23 00:00:33;;;;;;;14.40;11.63;;;;;;;11.54;66.51;100408.09;5072793;28;20583;-61
2022/04/23 00:02:59;;;;;;;14.60;11.07;;;;;;;11.51;66.86;100402.81;5072823;28;20021;-61
2022/04/23 00:05:25;;;;;;;15.55;11.50;;;;;;;11.56;66.73;100405.44;5072791;28;20052;-61
2022/04/23 00:07:50;;;;;;;15.75;11.65;;;;;;;11.55;66.69;100409.84;5074257;28;20086;-61
2022/04/23 00:10:15;;;;;;;15.68;11.38;;;;;;;11.52;66.87;100405.47;5077039;28;20491;-61
2022/04/23 00:12:42;;;;;;;15.05;12.25;;;;;;;11.47;67.06;100404.56;5076801;28;20032;-61
2022/04/23 00:15:08;;;;;;;18.40;12.00;;;;;;;11.43;66.89;100412.50;5076629;28;20033;-61
2022/04/23 00:17:36;;;;;;;14.07;11.10;;;;;;;11.42;67.08;100418.69;5076596;28;20418;-61
2022/04/23 00:20:02;;;;;;;15.63;11.63;;;;;;;11.42;67.21;100410.75;5076492;28;20032;-61
2022/04/23 00:22:27;;;;;;;14.02;11.02;;;;;;;11.39;66.93;100402.78;5076578;28;20388;-61
2022/04/23 00:24:53;;;;;;;15.50;11.70;;;;;;;11.36;67.29;100411.63;5076783;28;20564;-61
2022/04/23 00:27:18;;;;;;;15.90;11.23;;;;;;;11.40;67.27;100409.88;5076355;28;20028;-61
2022/04/23 00:29:43;;;;;;;15.00;11.50;;;;;;;11.32;67.76;100414.28;5076679;28;20107;-61
2022/04/23 00:32:08;;;;;;;15.57;11.60;;;;;;;11.33;67.79;100414.25;5076978;28;20062;-61
2022/04/23 00:34:34;;;;;;;16.70;11.52;;;;;;;11.24;68.30;100395.75;5076966;28;20111;-61
2022/04/23 00:36:59;;;;;;;15.73;12.25;;;;;;;11.18;68.75;100404.56;5076336;28;20021;-62
2022/04/23 00:39:25;;;;;;;16.25;11.52;;;;;;;11.16;68.58;100413.38;5076279;28;20023;-61
2022/04/23 00:41:52;;;;;;;17.85;11.80;;;;;;;11.19;68.72;100411.63;5076287;28;20392;-61
2022/04/23 00:44:18;;;;;;;16.55;12.15;;;;;;;11.19;68.67;100408.97;5076113;28;20028;-61
2022/04/23 00:46:45;;;;;;;19.83;12.60;;;;;;;11.24;68.44;100415.13;5076197;28;20065;-61
2022/04/23 00:49:11;;;;;;;16.77;12.30;;;;;;;11.21;68.27;100408.97;5076042;28;20032;-61
2022/04/23 00:51:38;;;;;;;20.15;12.05;;;;;;;11.22;68.18;100411.63;5075936;28;20032;-61
2022/04/23 00:54:07;;;;;;;18.13;12.63;;;;;;;11.21;68.47;100409.84;5076082;28;20121;-61
2022/04/23 00:56:33;;;;;;;18.52;12.73;;;;;;;11.21;68.74;100415.13;5076079;28;20071;-61
2022/04/23 00:58:59;;;;;;;17.98;12.65;;;;;;;11.21;68.39;100412.47;5075976;28;20024;-61
2022/04/23 01:01:25;;;;;;;16.73;12.80;;;;;;;11.18;69.13;100412.50;5075818;28;20020;-61
2022/04/23 01:03:52;;;;;;;15.68;12.90;;;;;;;11.15;69.38;100406.31;5075674;28;20097;-61
2022/04/23 01:06:18;;;;;;;18.13;13.93;;;;;;;11.07;69.55;100408.94;5075687;28;20374;-61
2022/04/23 01:08:45;;;;;;;18.63;13.00;;;;;;;11.07;69.51;100402.78;5075839;28;20032;-61
2022/04/23 01:11:10;;;;;;;18.65;13.98;;;;;;;11.03;70.01;100412.47;5075656;28;20036;-61
2022/04/23 01:13:36;;;;;;;18.52;13.75;;;;;;;11.00;70.19;100415.97;5075641;28;20374;-61
2022/04/23 01:16:07;;;;;;;18.75;14.38;;;;;;;10.96;70.17;100414.22;5075499;28;20017;-61
2022/04/23 01:18:33;;;;;;;22.67;14.23;;;;;;;10.98;70.34;100408.94;5075072;28;20465;-61
2022/04/23 01:21:02;;;;;;;20.75;14.27;;;;;;;10.95;70.27;100408.91;5075496;28;20094;-61
2022/04/23 01:23:29;;;;;;;17.55;14.00;;;;;;;10.95;70.27;100406.28;5075302;28;20485;-61
2022/04/23 01:25:55;;;;;;;17.83;13.63;;;;;;;10.94;70.62;100409.81;5075483;28;20032;-61
2022/04/23 01:28:22;;;;;;;18.48;14.18;;;;;;;10.95;70.81;100407.16;5075386;28;20024;-61
2022/04/23 01:30:52;;;;;;;18.95;14.82;;;;;;;10.94;70.80;100409.81;5075388;28;20039;-61
2022/04/23 01:33:18;;;;;;;17.90;14.52;;;;;;;10.93;70.89;100419.50;5075367;28;20055;-61
2022/04/23 01:35:43;;;;;;;19.27;13.95;;;;;;;10.91;70.81;100428.28;5075362;28;20075;-61
2022/04/23 01:38:09;;;;;;;21.45;14.30;;;;;;;10.92;70.58;100408.91;5075182;28;20021;-61
2022/04/23 01:40:35;;;;;;;21.13;14.55;;;;;;;10.94;71.07;100417.72;5075071;28;20414;-61
2022/04/23 01:43:00;;;;;;;24.00;15.15;;;;;;;10.88;70.76;100410.69;5075137;28;20029;-61
2022/04/23 01:45:26;;;;;;;20.65;15.07;;;;;;;10.85;71.17;100407.16;5075039;28;20053;-61
2022/04/23 01:47:51;;;;;;;21.02;15.27;;;;;;;10.84;71.43;100418.59;5075174;28;20025;-61
2022/04/23 01:50:16;;;;;;;19.08;14.20;;;;;;;10.83;71.30;100422.09;5074863;28;20024;-61
2022/04/23 01:52:41;;;;;;;21.73;16.20;;;;;;;10.78;71.50;100415.03;5074958;28;20492;-61
2022/04/23 01:55:07;;;;;;;21.13;16.00;;;;;;;10.78;71.85;100424.72;5074706;28;20028;-61
2022/04/23 01:57:33;;;;;;;22.67;15.70;;;;;;;10.73;72.14;100430.00;5075028;28;20025;-61
2022/04/23 01:59:58;;;;;;;21.23;16.80;;;;;;;10.71;72.06;100421.19;5074728;28;20063;-61
2022/04/23 02:02:23;;;;;;;21.55;16.42;;;;;;;10.69;72.31;100417.66;5074792;28;20035;-60
2022/04/23 02:04:49;;;;;;;20.35;17.00;;;;;;;10.67;72.16;100423.84;5074269;28;20027;-61
2022/04/23 02:07:14;;;;;;;29.33;17.02;;;;;;;10.67;72.14;100424.72;5074116;28;20031;-60
2022/04/23 02:09:39;;;;;;;23.13;17.42;;;;;;;10.67;72.38;100424.72;5073758;28;20060;-60
2022/04/23 02:12:05;;;;;;;22.08;16.33;;;;;;;10.63;72.31;100425.56;5073997;28;20378;-61
2022/04/23 02:14:30;;;;;;;20.95;16.45;;;;;;;10.63;72.42;100425.56;5074496;28;20036;-61
2022/04/23 02:16:56;;;;;;;22.63;16.45;;;;;;;10.60;72.53;100425.56;5074340;28;20382;-61
2022/04/23 02:19:22;;;;;;;20.30;16.63;;;;;;;10.53;73.11;100429.03;5074240;28;20390;-61
2022/04/23 02:21:47;;;;;;;23.88;17.45;;;;;;;10.51;73.38;100421.13;5056125;28;20028;-61
2022/04/23 02:24:13;;;;;;;22.83;17.23;;;;;;;10.51;73.74;100420.25;5074475;28;20477;-61
2022/04/23 02:26:38;;;;;;;23.08;18.52;;;;;;;10.43;73.59;100411.41;5074203;28;20488;-61
2022/04/23 02:29:04;;;;;;;23.65;18.13;;;;;;;10.47;73.80;100423.75;5074259;28;20501;-61
2022/04/23 02:31:29;;;;;;;25.90;17.65;;;;;;;10.50;73.54;100429.94;5073417;28;20592;-61
2022/04/23 02:33:54;;;;;;;22.30;17.80;;;;;;;10.51;73.76;100418.47;5074264;28;20420;-61
2022/04/23 02:36:20;;;;;;;25.55;18.25;;;;;;;10.51;73.72;100426.41;5073960;28;20021;-61
2022/04/23 02:38:50;;;;;;;26.45;17.35;;;;;;;10.46;73.90;100421.97;5074106;28;20115;-61
2022/04/23 02:41:15;;;;;;;24.40;18.42;;;;;;;10.46;73.53;100417.59;5074150;28;20190;-61
2022/04/23 02:43:42;;;;;;;25.63;18.10;;;;;;;10.47;73.92;100434.31;5073848;28;20060;-61
2022/04/23 02:46:08;;;;;;;23.88;17.38;;;;;;;10.43;74.22;100424.59;5073702;28;20468;-61
2022/04/23 02:48:35;;;;;;;27.05;19.17;;;;;;;10.42;74.47;100422.84;5073614;28;20126;-61
2022/04/23 02:51:01;;;;;;;24.70;18.98;;;;;;;10.40;74.39;100417.53;5055580;28;20370;-61
2022/04/23 02:53:27;;;;;;;24.45;19.15;;;;;;;10.39;74.43;100425.47;5073598;28;20031;-61
2022/04/23 02:55:56;;;;;;;23.10;18.63;;;;;;;10.32;74.86;100419.28;5073635;28;20024;-61
2022/04/23 02:58:24;;;;;;;26.10;18.80;;;;;;;10.35;74.38;100421.91;5073693;28;20077;-61
2022/04/23 03:00:49;;;;;;;27.45;19.48;;;;;;;10.36;74.49;100420.16;5073649;28;20116;-61
2022/04/23 03:03:15;;;;;;;25.30;19.67;;;;;;;10.37;75.00;100416.66;5073714;28;20109;-61
2022/04/23 03:05:42;;;;;;;25.48;19.00;;;;;;;10.33;74.77;100414.88;5073245;28;20036;-62
2022/04/23 03:08:07;;;;;;;24.70;19.27;;;;;;;10.33;74.99;100417.53;5073440;28;20039;-61
2022/04/23 03:10:33;;;;;;;26.80;19.73;;;;;;;10.30;74.98;100415.75;5073577;28;20028;-61
2022/04/23 03:12:58;;;;;;;25.00;19.02;;;;;;;10.29;75.03;100411.34;5073504;28;20032;-61
2022/04/23 03:15:28;;;;;;;29.23;19.75;;;;;;;10.26;75.54;100413.97;5073528;28;20027;-61
2022/04/23 03:18:08;;;;;;;26.95;19.70;;;;;;;10.26;74.46;100412.19;5073383;28;20074;-61
2022/04/23 03:20:34;;;;;;;26.88;19.70;;;;;;;10.26;75.11;100406.03;5073242;28;20134;-61
2022/04/23 03:22:59;;;;;;;24.60;19.92;;;;;;;10.26;75.25;100408.69;5073224;28;20493;-61
2022/04/23 03:25:25;;;;;;;27.35;19.45;;;;;;;10.23;75.28;100411.25;5073243;28;20531;-61
2022/04/23 03:27:50;;;;;;;26.40;18.95;;;;;;;10.20;75.20;100408.63;5073165;28;20021;-61
2022/04/23 03:30:16;;;;;;;25.30;20.20;;;;;;;10.14;75.49;100406.81;5073326;28;20046;-61
2022/04/23 03:32:42;;;;;;;28.42;20.08;;;;;;;10.18;75.56;100407.72;5073379;28;20032;-61
2022/04/23 03:35:08;;;;;;;29.50;20.08;;;;;;;10.14;75.79;100406.81;5073208;28;20021;-61
2022/04/23 03:37:34;;;;;;;27.67;20.05;;;;;;;10.08;75.74;100401.50;5073350;28;20070;-61
2022/04/23 03:39:59;;;;;;;28.52;21.15;;;;;;;10.09;76.08;100405.03;5073186;28;20028;-61
2022/04/23 03:42:24;;;;;;;25.33;18.92;;;;;;;10.11;75.81;100395.38;5073035;28;20051;-61
2022/04/23 03:44:50;;;;;;;27.17;20.23;;;;;;;10.11;76.02;100400.66;5073342;28;20032;-61
2022/04/23 03:47:15;;;;;;;30.23;21.45;;;;;;;10.10;75.71;100407.66;5073012;28;20470;-61
2022/04/23 03:49:41;;;;;;;26.50;19.92;;;;;;;10.11;75.89;100401.53;5072719;28;20036;-61
2022/04/23 03:52:06;;;;;;;27.33;20.20;;;;;;;10.14;76.01;100408.56;5072989;28;20029;-61
2022/04/23 03:54:32;;;;;;;28.13;20.75;;;;;;;10.11;76.03;100398.03;5073282;28;20025;-61
2022/04/23 03:56:57;;;;;;;28.27;20.70;;;;;;;10.09;76.23;100394.47;5072862;28;20028;-61
2022/04/23 03:59:23;;;;;;;28.40;19.73;;;;;;;10.06;76.36;100394.44;5072902;28;20099;-61
2022/04/23 04:01:51;;;;;;;29.25;22.25;;;;;;;10.01;76.65;100387.38;5072969;28;20024;-61
2022/04/23 04:04:17;;;;;;;28.08;20.83;;;;;;;10.01;76.15;100389.16;5072844;28;20033;-62
2022/04/23 04:06:43;;;;;;;26.08;20.55;;;;;;;10.00;76.58;100382.97;5072780;28;20064;-61
2022/04/23 04:09:08;;;;;;;31.85;21.58;;;;;;;10.02;76.53;100394.44;5072752;28;20043;-61
2022/04/23 04:14:18;;;;;;;29.63;20.77;;;;;;;9.93;76.98;100383.81;5072857;28;20500;-61
2022/04/23 04:16:45;;;;;;;29.10;21.88;;;;;;;9.94;76.98;100385.59;5072554;28;20064;-61
2022/04/23 04:19:14;;;;;;;27.52;20.73;;;;;;;9.96;76.79;100383.84;5072636;28;20056;-61
2022/04/23 04:21:41;;;;;;;30.13;21.58;;;;;;;9.95;77.23;100389.13;5072558;28;20085;-61
2022/04/23 04:24:06;;;;;;;29.13;21.13;;;;;;;9.94;77.40;100385.59;5072608;28;20020;-61
2022/04/23 04:26:32;;;;;;;28.65;20.55;;;;;;;9.94;77.21;100384.72;5072160;28;20036;-61
2022/04/23 04:28:57;;;;;;;30.05;21.73;;;;;;;9.93;77.48;100375.91;5071932;28;20023;-61
2022/04/23 04:34:06;;;;;;;28.92;21.55;;;;;;;9.88;77.63;100371.47;5071871;28;20071;-61
2022/04/23 04:36:37;;;;;;;30.52;21.42;;;;;;;9.88;77.75;100380.28;5071873;28;20170;-61
2022/04/23 04:39:02;;;;;;;28.85;21.80;;;;;;;9.88;77.74;100376.75;5071842;28;20029;-61
2022/04/23 04:41:29;;;;;;;27.70;21.08;;;;;;;9.87;77.61;100380.28;5071931;28;20420;-61
2022/04/23 04:43:54;;;;;;;29.23;20.85;;;;;;;9.87;77.96;100382.91;5071964;28;20025;-62
2022/04/23 04:46:20;;;;;;;30.63;22.38;;;;;;;9.86;78.39;100375.88;5071891;28;20278;-62
2022/04/23 04:48:46;;;;;;;29.63;21.65;;;;;;;9.86;78.10;100382.03;5071739;28;20029;-61
2022/04/23 04:51:11;;;;;;;28.63;21.25;;;;;;;9.88;78.16;100387.31;5071994;28;20112;-61
2022/04/23 04:53:36;;;;;;;31.02;21.38;;;;;;;9.81;78.13;100372.31;5073981;28;20052;-61
2022/04/23 04:56:02;;;;;;;27.40;21.35;;;;;;;9.90;78.24;100390.84;5076024;28;20021;-61
2022/04/23 04:58:28;;;;;;;27.67;20.98;;;;;;;9.91;78.18;100387.34;5075516;28;20107;-62
2022/04/23 05:00:54;;;;;;;30.83;21.80;;;;;;;9.94;78.28;100390.88;5075295;28;20052;-61
2022/04/23 05:03:19;;;;;;;27.55;20.88;;;;;;;9.97;77.97;100392.63;5075251;28;20095;-61
2022/04/23 05:05:45;;;;;;;28.00;20.60;;;;;;;10.00;78.17;100395.31;5075100;28;20021;-61
2022/04/23 05:08:11;;;;;;;30.13;21.10;;;;;;;10.06;77.67;100399.72;5075375;28;20024;-61
2022/04/23 05:10:36;;;;;;;26.23;20.38;;;;;;;10.09;77.65;100398.00;5075193;28;20021;-61
2022/04/23 05:13:01;;;;;;;30.52;20.55;;;;;;;10.18;77.35;100403.31;5075157;28;20024;-62
2022/04/23 05:15:27;;;;;;;27.20;20.45;;;;;;;10.20;77.19;100400.69;5074932;28;20024;-61
2022/04/23 05:17:52;;;;;;;31.75;21.23;;;;;;;10.29;76.80;100403.41;5074793;28;20077;-61
2022/04/23 05:20:18;;;;;;;27.05;20.35;;;;;;;10.35;76.90;100405.19;5075010;28;20036;-61
2022/04/23 05:22:43;;;;;;;27.05;20.60;;;;;;;10.38;76.57;100399.94;5074626;28;20052;-61
2022/04/23 05:25:09;;;;;;;29.30;20.33;;;;;;;10.41;76.50;100395.56;5074908;28;20032;-61
2022/04/23 05:27:34;;;;;;;26.13;20.13;;;;;;;10.48;76.12;100392.03;5074770;28;20024;-61
2022/04/23 05:29:59;;;;;;;30.27;22.42;;;;;;;10.54;76.37;100393.84;5074797;28;20587;-61
2022/04/23 05:32:25;;;;;;;26.33;19.98;;;;;;;10.61;75.89;100387.69;5074673;28;20070;-61
2022/04/23 05:34:50;;;;;;;25.25;20.10;;;;;;;10.69;75.80;100391.22;5074763;28;20052;-61
2022/04/23 05:37:15;;;;;;;28.67;20.65;;;;;;;10.78;75.41;100395.66;5074412;28;20031;-61
2022/04/23 05:39:40;;;;;;;26.50;20.38;;;;;;;10.87;75.10;100394.81;5074429;28;20111;-61
2022/04/23 05:42:06;;;;;;;25.10;20.25;;;;;;;10.92;74.66;100395.69;5074560;28;20021;-61
2022/04/23 05:44:31;;;;;;;28.90;20.92;;;;;;;10.97;74.57;100389.56;5074368;28;20029;-61
2022/04/23 05:46:57;;;;;;;27.92;20.58;;;;;;;11.04;74.38;100386.00;5074564;28;20020;-61
2022/04/23 05:49:22;;;;;;;26.15;19.50;;;;;;;11.11;74.41;100384.28;5074354;28;20442;-62
2022/04/23 05:51:47;;;;;;;27.00;20.52;;;;;;;11.22;73.96;100395.75;5074384;28;20028;-61
2022/04/23 05:54:12;;;;;;;26.70;20.35;;;;;;;11.27;73.20;100390.47;5074316;28;20017;-61
2022/04/23 05:56:38;;;;;;;27.33;20.60;;;;;;;11.31;72.99;100389.59;5074301;28;20111;-62
2022/04/23 05:59:03;;;;;;;26.65;19.33;;;;;;;11.42;73.42;100390.44;5073997;28;20021;-61
2022/04/23 06:01:28;;;;;;;25.55;20.02;;;;;;;11.56;72.84;100392.22;5074325;28;20021;-61
2022/04/23 06:03:54;;;;;;;24.73;18.98;;;;;;;11.65;72.62;100389.56;5074314;28;20108;-61
2022/04/23 06:06:20;;;;;;;28.45;19.75;;;;;;;11.75;72.58;100386.91;5072824;28;20116;-61
2022/04/23 06:08:45;;;;;;;25.67;19.40;;;;;;;11.86;71.33;100381.66;5056019;28;20441;-61
2022/04/23 06:11:12;;;;;;;26.35;20.15;;;;;;;12.00;71.31;100377.19;5073887;28;20024;-61
2022/04/23 06:13:37;;;;;;;25.73;18.83;;;;;;;12.14;70.60;100384.22;5074151;28;20086;-61
2022/04/23 06:16:03;;;;;;;24.50;19.33;;;;;;;12.21;70.11;100388.63;5073772;28;20036;-61
2022/04/23 06:18:28;;;;;;;25.85;20.08;;;;;;;12.28;70.16;100391.22;5073682;28;20036;-61
2022/04/23 06:20:54;;;;;;;28.58;19.92;;;;;;;12.39;69.82;100387.66;5073628;28;20055;-61
2022/04/23 06:23:19;;;;;;;23.85;19.48;;;;;;;12.47;69.34;100383.22;5073654;28;20040;-61
2022/04/23 06:25:44;;;;;;;23.98;18.20;;;;;;;12.60;68.77;100382.25;5073804;28;20099;-61
2022/04/23 06:28:10;;;;;;;24.90;20.02;;;;;;;12.71;68.14;100383.06;5073948;28;20474;-61
2022/04/23 06:30:37;;;;;;;24.17;19.25;;;;;;;12.85;68.53;100380.38;5073601;28;20524;-62
2022/04/23 06:33:03;;;;;;;25.00;20.45;;;;;;;12.93;68.13;100378.53;5073591;28;20024;-61
2022/04/23 06:35:30;;;;;;;23.67;18.90;;;;;;;13.07;67.43;100380.22;5073437;28;20083;-62
2022/04/23 06:37:56;;;;;;;21.83;18.02;;;;;;;13.22;66.65;100388.06;5073489;28;20044;-61
2022/04/23 06:40:22;;;;;;;28.65;18.55;;;;;;;13.34;65.98;100373.84;5073367;28;20439;-61
2022/04/23 06:42:47;;;;;;;25.42;18.92;;;;;;;13.44;65.15;100379.06;5073245;28;20074;-61
2022/04/23 06:45:12;;;;;;;24.45;19.52;;;;;;;13.53;65.25;100386.97;5073354;28;20059;-61
2022/04/23 06:47:38;;;;;;;23.73;18.40;;;;;;;13.64;64.82;100380.66;5073225;28;20036;-61
2022/04/23 06:50:04;;;;;;;25.45;19.27;;;;;;;13.81;64.30;100384.03;5073316;28;20082;-61
2022/04/23 06:52:30;;;;;;;21.83;17.83;;;;;;;13.92;63.33;100376.84;5072732;28;20034;-61
2022/04/23 06:54:55;;;;;;;23.75;19.67;;;;;;;14.03;62.74;100380.25;5073140;28;20099;-61
2022/04/23 06:57:24;;;;;;;23.70;19.73;;;;;;;14.11;62.83;100374.88;5072959;28;20172;-61
2022/04/23 06:59:51;;;;;;;25.33;19.15;;;;;;;14.32;62.71;100372.84;5073053;28;20062;-61
2022/04/23 07:02:17;;;;;;;25.42;18.23;;;;;;;14.53;61.56;100370.84;5073097;28;20024;-61
2022/04/23 07:04:43;;;;;;;21.98;18.52;;;;;;;14.66;61.40;100368.91;5072957;28;20078;-61
2022/04/23 07:07:10;;;;;;;21.63;18.13;;;;;;;14.84;60.56;100364.22;5072937;28;20100;-61
2022/04/23 07:09:35;;;;;;;23.83;17.80;;;;;;;14.97;59.52;100366.66;5072783;28;20055;-61
2022/04/23 07:12:01;;;;;;;22.95;18.67;;;;;;;15.08;59.33;100363.88;5072961;28;20028;-61
2022/04/23 07:14:26;;;;;;;22.65;17.88;;;;;;;15.31;59.21;100352.84;5072789;28;20028;-61
2022/04/23 07:16:52;;;;;;;21.80;18.10;;;;;;;15.45;58.00;100357.94;5072440;28;20035;-61
2022/04/23 07:19:17;;;;;;;21.40;17.80;;;;;;;15.53;57.50;100367.53;5072682;28;20106;-61
2022/04/23 07:21:42;;;;;;;22.40;18.35;;;;;;;15.63;57.25;100367.38;5072455;28;20056;-62
2022/04/23 07:24:10;;;;;;;22.98;17.25;;;;;;;15.66;56.54;100364.69;5072567;28;20021;-61
2022/04/23 07:26:37;;;;;;;21.65;17.55;;;;;;;15.68;56.79;100357.56;5072631;28;20024;-61
2022/04/23 07:29:06;;;;;;;23.23;17.70;;;;;;;15.86;56.53;100353.69;5072734;28;20035;-61
2022/04/23 07:31:32;;;;;;;22.35;17.33;;;;;;;15.98;55.61;100364.13;5072776;28;20055;-61
2022/04/23 07:39:25;;;;;;;21.20;17.20;;;;;;;16.08;54.74;100347.03;5073004;28;20119;-61
2022/04/23 07:41:53;;;;;;;22.63;17.73;;;;;;;16.11;54.33;100354.97;5072191;28;20661;-61
2022/04/23 07:44:18;;;;;;;20.75;17.55;;;;;;;16.05;54.52;100354.19;5072112;28;20028;-61
2022/04/23 07:46:43;;;;;;;20.73;17.45;;;;;;;16.21;54.08;100353.88;5071628;28;20040;-60
2022/04/23 07:49:09;;;;;;;20.58;16.77;;;;;;;16.30;53.92;100343.94;5071713;28;20032;-62
2022/04/23 07:51:34;;;;;;;22.10;17.60;;;;;;;16.34;53.17;100351.84;5072066;28;20024;-61
2022/04/23 07:54:00;;;;;;;20.58;17.35;;;;;;;16.49;53.49;100342.66;5054397;28;20025;-61
2022/04/23 07:56:25;;;;;;;20.70;17.35;;;;;;;16.65;52.84;100336.03;5072600;28;20043;-61
2022/04/23 07:58:50;;;;;;;21.33;17.20;;;;;;;16.86;52.26;100336.50;5072529;28;20039;-61
2022/04/23 08:01:16;;;;;;;20.02;16.35;;;;;;;16.98;51.45;100346.91;5072348;28;20021;-61
2022/04/23 08:03:44;;;;;;;22.02;16.85;;;;;;;17.03;51.54;100339.66;5072084;28;20043;-62
2022/04/23 08:06:10;;;;;;;21.48;17.65;;;;;;;17.16;51.14;100341.09;5072207;28;20028;-61
2022/04/23 08:08:38;;;;;;;21.77;17.23;;;;;;;17.26;50.23;100336.44;5072179;28;20097;-61
2022/04/23 08:11:03;;;;;;;20.70;16.80;;;;;;;17.46;50.26;100323.44;5072315;28;20025;-62
2022/04/23 08:13:30;;;;;;;17.80;15.52;;;;;;;17.71;49.30;100333.47;5072265;28;20035;-61
2022/04/23 08:15:56;;;;;;;22.10;16.63;;;;;;;17.86;48.38;100329.53;5072218;28;20020;-61
2022/04/23 08:18:22;;;;;;;21.30;16.13;;;;;;;17.91;47.95;100316.94;5072095;28;20067;-61
2022/04/23 08:20:48;;;;;;;21.60;15.95;;;;;;;17.80;48.40;100322.56;5072088;28;20517;-62
2022/04/23 08:23:15;;;;;;;22.45;16.98;;;;;;;17.88;47.98;100323.25;5071921;28;20192;-61
2022/04/23 08:25:40;;;;;;;21.50;16.50;;;;;;;17.89;47.81;100321.44;5072057;28;20049;-61
2022/04/23 08:30:49;;;;;;;21.95;16.42;;;;;;;18.08;47.65;100313.81;5076126;28;20039;-61
2022/04/23 08:33:15;;;;;;;20.42;16.27;;;;;;;18.21;46.35;100305.38;5075814;28;20020;-62
2022/04/23 08:35:40;;;;;;;20.08;16.13;;;;;;;18.35;46.58;100309.44;5075591;28;20035;-61
2022/04/23 08:38:07;;;;;;;22.88;16.35;;;;;;;18.30;46.29;100316.72;5076189;28;20049;-62
2022/04/23 08:40:38;;;;;;;18.70;15.70;;;;;;;18.10;46.69;100312.81;5075885;28;20028;-61
2022/04/23 08:43:04;;;;;;;23.95;17.10;;;;;;;17.95;46.92;100314.16;5075725;28;20498;-61
2022/04/23 08:45:35;;;;;;;19.38;17.00;;;;;;;18.08;47.08;100328.03;5075756;28;20462;-61
2022/04/23 08:48:06;;;;;;;19.05;17.00;;;;;;;17.92;47.31;100322.25;5075405;28;20123;-61
2022/04/23 08:50:36;;;;;;;21.77;16.70;;;;;;;18.00;47.51;100317.56;5075640;28;20389;-61
2022/04/23 08:53:01;;;;;;;20.92;16.50;;;;;;;18.11;46.76;100322.59;5057643;28;20268;-61
2022/04/23 08:55:27;;;;;;;20.80;16.98;;;;;;;18.25;46.83;100317.75;5075361;28;20468;-61
2022/04/23 08:57:54;;;;;;;17.85;15.95;;;;;;;18.45;46.81;100324.28;5075394;28;20447;-61
2022/04/23 09:00:19;;;;;;;19.10;17.02;;;;;;;18.45;45.91;100330.50;5075256;28;20039;-62
2022/04/23 09:02:46;;;;;;;19.17;16.95;;;;;;;18.42;45.79;100327.94;5075348;28;20020;-61
2022/04/23 09:05:12;;;;;;;24.88;18.52;;;;;;;18.32;46.10;100334.47;5075311;28;20082;-62
2022/04/23 09:07:39;;;;;;;20.45;17.65;;;;;;;18.22;46.62;100328.50;5075128;28;20024;-62
2022/04/23 09:10:06;;;;;;;25.17;17.95;;;;;;;18.15;46.85;100321.56;5075187;28;20393;-62
2022/04/23 09:12:31;;;;;;;19.73;17.67;;;;;;;18.05;46.81;100328.13;5075139;28;20104;-62
2022/04/23 09:23:39;;;;;;;21.73;18.85;;;;;;;18.19;47.36;100325.91;5075094;28;20108;-62
2022/04/23 09:23:43;;;;;;;25.98;19.67;;;;;;;18.25;47.29;100332.91;5074752;28;20055;-62
2022/04/23 09:26:16;;;;;;;24.55;19.67;;;;;;;18.33;47.07;100338.00;5074966;28;20044;-61
2022/04/23 09:28:45;;;;;;;27.90;20.02;;;;;;;18.55;46.16;100328.44;5074804;28;20032;-62
2022/04/23 09:31:12;;;;;;;21.92;18.80;;;;;;;18.72;46.47;100328.84;5074857;28;20025;-62
2022/04/23 09:33:43;;;;;;;23.20;18.15;;;;;;;19.25;45.85;100322.69;5074617;28;20025;-62
2022/04/23 09:36:10;;;;;;;24.52;18.67;;;;;;;19.53;43.50;100333.34;5074488;28;20032;-61
2022/04/23 09:38:35;;;;;;;26.55;20.10;;;;;;;19.53;43.89;100330.66;5074637;28;20020;-62
2022/04/23 09:41:19;;;;;;;26.20;20.58;;;;;;;19.52;43.21;100334.25;5074527;28;20029;-61
2022/04/23 09:43:46;;;;;;;24.55;20.25;;;;;;;19.53;43.90;100330.66;5074673;28;20032;-62
2022/04/23 09:46:12;;;;;;;35.83;20.02;;;;;;;19.50;43.20;100325.41;5074662;28;20377;-62
2022/04/23 09:48:39;;;;;;;22.27;19.88;;;;;;;19.56;43.20;100332.34;5074747;28;20021;-62
2022/04/23 09:51:21;;;;;;;22.58;19.90;;;;;;;19.58;43.30;100319.78;5074128;28;20020;-61
2022/04/23 09:53:48;;;;;;;25.05;21.35;;;;;;;19.31;43.06;100329.63;5074522;28;20434;-62
2022/04/23 09:56:14;;;;;;;26.27;21.20;;;;;;;19.25;43.48;100322.69;5074417;28;20029;-61
2022/04/23 09:58:39;;;;;;;25.45;21.10;;;;;;;19.50;43.57;100315.56;5074333;28;20024;-62
2022/04/23 10:01:07;;;;;;;22.60;20.17;;;;;;;19.71;43.17;100339.91;5074332;28;20100;-62
2022/04/23 10:03:33;;;;;;;23.55;19.80;;;;;;;19.92;42.38;100320.38;5074148;28;20107;-62
2022/04/23 10:06:01;;;;;;;22.55;19.77;;;;;;;20.04;42.34;100308.28;5074165;28;20154;-62
2022/04/23 10:08:35;;;;;;;24.58;20.75;;;;;;;19.87;41.86;100321.44;5074178;28;20029;-62
2022/04/23 10:11:11;;;;;;;26.85;21.35;;;;;;;19.57;42.52;100308.19;5074215;28;20028;-62
2022/04/23 10:13:40;;;;;;;26.90;20.55;;;;;;;19.51;43.11;100314.63;5055938;28;20108;-62
2022/04/23 10:16:07;;;;;;;27.55;20.05;;;;;;;19.67;43.37;100320.38;5073811;28;20078;-62
2022/04/23 10:18:38;;;;;;;23.08;20.65;;;;;;;19.58;43.43;100301.91;5073839;28;20024;-62
2022/04/23 10:21:08;;;;;;;26.77;21.67;;;;;;;19.65;42.53;100310.63;5073929;28;20025;-62
2022/04/23 10:23:43;;;;;;;26.95;21.25;;;;;;;19.95;42.15;100308.63;5073483;28;20135;-63
2022/04/23 10:26:24;;;;;;;29.02;22.30;;;;;;;20.00;41.74;100302.19;5073873;28;20033;-64
2022/04/23 10:28:50;;;;;;;24.40;21.63;;;;;;;20.05;41.91;100302.03;5073471;28;20024;-62
2022/04/23 10:31:17;;;;;;;28.00;21.42;;;;;;;20.14;42.19;100295.44;5073694;28;20021;-61
2022/04/23 10:33:46;;;;;;;24.33;21.30;;;;;;;20.40;41.72;100294.44;5073609;28;20539;-62
2022/04/23 10:36:12;;;;;;;23.95;20.77;;;;;;;20.84;40.72;100287.34;5073841;28;20028;-61
2022/04/23 10:38:42;;;;;;;26.88;20.33;;;;;;;21.27;39.67;100296.31;5073667;28;20031;-61
2022/04/23 10:41:10;;;;;;;26.00;22.23;;;;;;;21.21;38.86;100302.84;5077897;28;20032;-61
2022/04/23 10:43:35;;;;;;;28.50;21.65;;;;;;;21.42;39.41;100281.41;5076200;28;20488;-61
2022/04/23 10:46:04;;;;;;;23.73;21.15;;;;;;;21.70;39.52;100281.06;5075175;28;20021;-62
2022/04/23 10:48:30;;;;;;;25.10;22.02;;;;;;;21.81;38.15;100291.34;5073360;28;20056;-62
2022/04/23 10:51:04;;;;;;;31.27;22.90;;;;;;;21.74;38.72;100294.28;5072553;28;20020;-61
2022/04/23 10:53:38;;;;;;;23.85;21.17;;;;;;;21.66;39.07;100293.75;5073370;28;20025;-61
2022/04/23 10:56:09;;;;;;;26.42;21.48;;;;;;;21.44;38.62;100292.94;5072962;28;20020;-62
2022/04/23 10:58:34;;;;;;;30.10;22.05;;;;;;;21.19;38.63;100298.44;5073228;28;20361;-61
2022/04/23 11:01:21;;;;;;;24.33;19.80;;;;;;;21.57;38.66;100294.16;5073000;28;20025;-61
2022/04/23 11:03:51;;;;;;;27.35;20.88;;;;;;;21.44;38.21;100290.25;5073121;28;20032;-61
2022/04/23 11:12:26;;;;;;;22.67;20.27;;;;;;;20.93;39.62;100281.59;5073599;28;20051;-62
2022/04/23 11:14:55;;;;;;;28.58;21.52;;;;;;;20.85;39.82;100285.53;5072790;28;20047;-62
2022/04/23 11:17:36;;;;;;;27.55;21.27;;;;;;;20.91;39.65;100288.84;5072673;28;20137;-61
2022/04/23 11:20:01;;;;;;;25.77;21.38;;;;;;;21.05;39.55;100282.91;5073104;28;20129;-61
2022/04/23 11:22:27;;;;;;;25.73;20.95;;;;;;;20.94;39.84;100283.38;5072611;28;20513;-62
2022/04/23 11:24:53;;;;;;;23.73;21.23;;;;;;;20.92;39.59;100271.78;5072798;28;20530;-61
2022/04/23 11:27:32;;;;;;;23.42;20.92;;;;;;;21.23;40.11;100274.06;5072686;28;20029;-61
2022/04/23 11:29:58;;;;;;;28.58;20.38;;;;;;;21.53;38.53;100297.91;5072756;28;20055;-61
2022/04/23 11:32:31;;;;;;;23.05;20.65;;;;;;;21.40;38.29;100275.19;5072507;28;20125;-61